State College, Pennsylvania
Current Conditions -  °F | °C
As of 10:15 PM on Wednesday 22 Oct 2014 (Local Time) from KUNV Reporting Station
Overcast Overcast  
Wind Chill: 41°   Ceiling: 1900
Heat Index: 46°   Visibility: 10mi
Dew Point: 40°   Wind: 13mph
Humidity: 79%   Direction: 360°N
Pressure: 30.06"   Gusts: NA
Location:  40.79°N, 77.86°W
Report Text: KUNV 230215Z AUTO 36011KT 10SM OVC019 08/05 A3006 RMK AO2 T00800045
Loading
Personal Weather Stations






























Interactive Weather Map New forecast layout! Learn more

10-Day Weather Forecast

Advertisements
Track Severe Weather on mobile